D/T METAR WX W/SPE G/SPE TEMP DEWP FEEL
25/05/22 01:20 EGYD 250020Z AUTO 25009KT 9999 FEW210/// 08/06 Q1009 10.4mph 8°C 6°C 7.6°C
25/05/22 00:50 EGYD 242350Z AUTO 25008KT 9999 NCD 09/06 Q1009 9.2mph 9°C 6°C 8.6°C
25/05/22 00:20 EGYD 242320Z AUTO 24010KT 9999 FEW200/// 09/06 Q1009 11.5mph 9°C 6°C 8.6°C
24/05/22 23:50 EGYD 242250Z AUTO 23008KT 9999 NCD 09/06 Q1009 9.2mph 9°C 6°C 8.6°C
24/05/22 23:20 EGYD 242220Z AUTO 23006KT 9999 NCD 08/05 Q1009 6.9mph 8°C 5°C 7.3°C
24/05/22 22:50 EGYD 242150Z AUTO 24006KT 9999 NCD 09/05 Q1009 6.9mph 9°C 5°C 8.3°C
24/05/22 22:20 EGYD 242120Z AUTO 25007KT //// NCD 08/05 Q1009 8.1mph 8°C 5°C 7.3°C
24/05/22 21:50 EGYD 242050Z AUTO 25007KT //// NCD 09/05 Q1009 8.1mph 9°C 5°C 8.3°C
24/05/22 21:20 EGYD 242020Z AUTO 26006KT 9999 NCD 11/06 Q1008 6.9mph 11°C 6°C 10.6°C
24/05/22 20:50 EGYD 241950Z AUTO 25007KT //// NCD 11/05 Q1008 8.1mph 11°C 5°C 10.3°C
24/05/22 20:20 EGYD 241920Z AUTO 26005KT //// SCT054/// 14/05 Q1008 5.8mph 14°C 5°C 13.3°C
24/05/22 19:50 EGYD 241850Z AUTO 28009KT //// SCT056/// 15/04 Q1007 10.4mph 15°C 4°C 14.0°C
24/05/22 19:20 EGYD 241820Z AUTO 28010KT //// FEW052/// 16/04 Q1007 11.5mph 16°C 4°C 15.0°C
24/05/22 18:50 EGYD 241750Z AUTO 29011KT //// SCT053/// 15/04 Q1007 12.7mph 15°C 4°C 14.0°C
24/05/22 18:20 EGYD 241720Z AUTO 29011KT //// SCT054/// SCT071/// 16/04 Q1006 12.7mph 16°C 4°C 15.0°C
24/05/22 17:50 EGYD 241650Z AUTO 28012KT //// BKN054/// SCT077/// 17/04 Q1006 13.8mph 17°C 4°C 16.0°C
24/05/22 17:20 EGYD 241620Z 27012KT 9999 FEW045 SCT080 16/04 Q1006 NOSIG RMK BLU BLU 13.8mph 16°C 4°C 15.0°C
24/05/22 16:50 EGYD 241550Z 27013KT 9999 FEW045 SCT080 16/04 Q1005 NOSIG RMK BLU BLU 15.0mph 16°C 4°C 15.0°C
24/05/22 16:20 EGYD 241520Z 31014KT 9999 FEW030CB SCT045 17/05 Q1005 NOSIG RMK BLU BLU 16.1mph 17°C 5°C 16.3°C
24/05/22 15:50 EGYD 241450Z 32005KT 9999 FEW030CB SCT035 15/06 Q1005 NOSIG RMK BLU BLU 5.8mph 15°C 6°C 14.6°C
24/05/22 15:20 EGYD 241420Z 23008KT 9999 FEW030CB FEW040 15/08 Q1005 NOSIG RMK BLU BLU 9.2mph 15°C 8°C 15.4°C
24/05/22 14:50 EGYD 241350Z 21003KT 9999 FEW030CB FEW034 16/08 Q1005 NOSIG RMK BLU BLU 3.5mph 16°C 8°C 16.4°C
24/05/22 14:20 EGYD 241320Z 24004KT 9999 -SHRA FEW030CB SCT034 14/07 Q1005 NOSIG RMK BLU BLU -SHRA 4.6mph 14°C 7°C 14.0°C
24/05/22 13:50 EGYD 241250Z 29008KT 9999 VCSH SCT030CB 13/09 Q1005 NOSIG RMK BLU BLU VCSH 9.2mph 13°C 9°C 13.8°C
24/05/22 13:20 EGYD 241220Z 31010KT 9999 VCSH SCT030CB 14/08 Q1004 TEMPO 3000 +TSRA RMK BLU TEMPO YLO1 VCSH 11.5mph 14°C 8°C 14.4°C
24/05/22 12:50 EGYD 241150Z 31005KT 9999 FEW030CB BKN032 11/07 Q1004 RESHRA NOSIG RMK BLU BLU 5.8mph 11°C 7°C 11.0°C
24/05/22 12:36 EGYD 241136Z 31010KT 9999 -SHRA FEW030CB BKN032 10/08 Q1004 RESHRA NOSIG RMK BLU BLU -SHRA 11.5mph 10°C 8°C 10.4°C
24/05/22 11:50 EGYD 241050Z 25014KT 9999 VCSH FEW030CB 13/07 Q1004 TEMPO 6000 SHRA RMK BLU TEMPO WHT VCSH 16.1mph 13°C 7°C 13.0°C
24/05/22 11:20 EGYD 241020Z 27015KT 9999 VCSH FEW032CB 13/06 Q1003 TEMPO 6000 SHRA RMK BLU TEMPO WHT VCSH 17.3mph 13°C 6°C 12.6°C
24/05/22 10:50 EGYD 240950Z 28015KT 9999 VCSH FEW029 BKN060 14/06 Q1003 TEMPO 6000 SHRA SCT030CB RMK BLU TEMPO WHT VCSH 17.3mph 14°C 6°C 13.6°C
24/05/22 10:20 EGYD 240920Z 29011KT 9999 FEW029 BKN060 13/07 Q1003 TEMPO 7000 -SHRA RMK BLU TEMPO WHT 12.7mph 13°C 7°C 13.0°C
24/05/22 09:50 EGYD 240850Z 29013KT 9999 FEW031 14/06 Q1002 TEMPO 7000 -SHRA RMK BLU TEMPO WHT 15.0mph 14°C 6°C 13.6°C
24/05/22 09:20 EGYD 240820Z 28012KT 9999 FEW021 SCT250 14/08 Q1002 NOSIG RMK BLU BLU 13.8mph 14°C 8°C 14.4°C
24/05/22 08:50 EGYD 240750Z 26014KT 9999 FEW020 SCT250 13/08 Q1002 NOSIG RMK BLU BLU 16.1mph 13°C 8°C 13.4°C
24/05/22 08:20 EGYD 240720Z 27013KT 9999 FEW015 BKN250 12/09 Q1002 NOSIG RMK BLU BLU 15.0mph 12°C 9°C 12.8°C
24/05/22 07:50 EGYD 240650Z 27012KT 9999 FEW014 SCT070 BKN250 12/09 Q1001 NOSIG RMK BLU 13.8mph 12°C 9°C 12.8°C
24/05/22 07:20 EGYD 240620Z 27013KT 9999 FEW008 SCT080 11/09 Q1001 NOSIG RMK BLU BLU 15.0mph 11°C 9°C 11.8°C
24/05/22 06:50 EGYD 240550Z 27011KT 9999 FEW007 BKN070 11/09 Q1000 NOSIG RMK BLU BLU 12.7mph 11°C 9°C 11.8°C
24/05/22 06:20 EGYD 240520Z AUTO 26011KT 9999 OVC061/// 10/09 Q1000 12.7mph 10°C 9°C 10.8°C
24/05/22 05:50 EGYD 240450Z AUTO 26009KT 9999 BKN061/// 10/09 Q1000 10.4mph 10°C 9°C 10.8°C
24/05/22 05:20 EGYD 240420Z AUTO 26008KT 9999 FEW035/// BKN063/// 10/09 Q1000 9.2mph 10°C 9°C 10.8°C
24/05/22 04:50 EGYD 240350Z AUTO 25009KT 9999 FEW034/// OVC044/// 10/09 Q0999 10.4mph 10°C 9°C 10.8°C
24/05/22 04:20 EGYD 240320Z AUTO 25008KT 9999 SCT047/// BKN120/// 09/09 Q0999 9.2mph 9°C 9°C 9.8°C
24/05/22 03:50 EGYD 240250Z AUTO 25008KT 9999 OVC035/// 10/09 Q0999 9.2mph 10°C 9°C 10.8°C
24/05/22 03:20 EGYD 240220Z AUTO 26008KT 9999 BKN031/// 10/09 Q0999 9.2mph 10°C 9°C 10.8°C
24/05/22 02:50 EGYD 240150Z AUTO 27006KT 9999 SCT030/// OVC092/// 10/09 Q0999 6.9mph 10°C 9°C 10.8°C
24/05/22 02:20 EGYD 240120Z AUTO 27007KT 9999 BKN042/// SCT092/// 10/09 Q0999 8.1mph 10°C 9°C 10.8°C
24/05/22 01:50 EGYD 240050Z AUTO 27007KT 9999 OVC036/// 10/09 Q0999 8.1mph 10°C 9°C 10.8°C
24/05/22 01:20 EGYD 240020Z AUTO 28006KT 9999 OVC034/// 10/09 Q0999 6.9mph 10°C 9°C 10.8°C
24/05/22 00:50 EGYD 232350Z AUTO 28007KT 9999 SCT036/// SCT046/// OVC090/// 11/09 Q0999 8.1mph 11°C 9°C 11.8°C
24/05/22 00:20 EGYD 232320Z AUTO 28006KT 9999 FEW035/// OVC044/// 11/09 Q0999 6.9mph 11°C 9°C 11.8°C
23/05/22 23:50 EGYD 232250Z AUTO 27006KT 9999 OVC055/// 11/10 Q0999 6.9mph 11°C 10°C 12.3°C
23/05/22 23:20 EGYD 232220Z AUTO 27007KT 9999 SCT027/// BKN053/// 11/10 Q0999 8.1mph 11°C 10°C 12.3°C
23/05/22 22:50 EGYD 232150Z AUTO 25008KT 9999 FEW029/// OVC044/// 11/10 Q0999 9.2mph 11°C 10°C 12.3°C
23/05/22 22:20 EGYD 232120Z AUTO 25007KT 9999 FEW031/// SCT061/// 11/10 Q0999 8.1mph 11°C 10°C 12.3°C
23/05/22 21:50 EGYD 232050Z AUTO 24009KT 9999 OVC055/// 11/11 Q0999 10.4mph 11°C 11°C 12.8°C
23/05/22 21:20 EGYD 232020Z AUTO 24006KT 9999 OVC054/// 12/10 Q0999 6.9mph 12°C 10°C 13.3°C
23/05/22 20:50 EGYD 231950Z AUTO 24006KT 9999 OVC053/// 12/10 Q0999 6.9mph 12°C 10°C 13.3°C
23/05/22 20:20 EGYD 231920Z AUTO 27007KT 9999 OVC058/// 12/10 Q0999 8.1mph 12°C 10°C 13.3°C
23/05/22 19:50 EGYD 231850Z AUTO 28009KT 9999 SCT050/// BKN072/// 12/10 Q0999 10.4mph 12°C 10°C 13.3°C
23/05/22 19:20 EGYD 231820Z AUTO 29009KT 9999 OVC047/// 12/10 Q0999 10.4mph 12°C 10°C 13.3°C
23/05/22 18:50 EGYD 231750Z AUTO 29008KT 5000 OVC042/// 13/11 Q0999 9.2mph 13°C 11°C 14.8°C
23/05/22 18:20 EGYD 231720Z AUTO 29012KT 9999 OVC035/// 14/09 Q0999 13.8mph 14°C 9°C 14.8°C
23/05/22 17:50 EGYD 231650Z AUTO 27009KT //// SCT040/// BKN120/// 16/09 Q0999 10.4mph 16°C 9°C 16.8°C
23/05/22 17:20 EGYD 231620Z AUTO 27008KT //// FEW041/// BKN140/// 17/07 Q0999 9.2mph 17°C 7°C 17.0°C
23/05/22 16:50 EGYD 231550Z 25007KT 9999 FEW037 BKN150 17/08 Q0998 NOSIG RMK BLU BLU 8.1mph 17°C 8°C 17.4°C
23/05/22 16:20 EGYD 231520Z AUTO 27006KT 9999 SCT037/// SCT150/// 17/09 Q0999 6.9mph 17°C 9°C 17.8°C
23/05/22 15:50 EGYD 231450Z 25007KT 9999 FEW038 BKN120 17/08 Q0999 NOSIG RMK BLU BLU 8.1mph 17°C 8°C 17.4°C
23/05/22 15:20 EGYD 231420Z 25008KT 9999 FEW038 BKN130 17/08 Q0999 NOSIG RMK BLU BLU 9.2mph 17°C 8°C 17.4°C
23/05/22 14:50 EGYD 231350Z 26009KT 9999 SCT039 BKN110 17/08 Q1000 NOSIG RMK BLU BLU 10.4mph 17°C 8°C 17.4°C
23/05/22 14:20 EGYD 231320Z 25009KT 9999 FEW037 BKN110 17/08 Q1000 NOSIG RMK BLU BLU 10.4mph 17°C 8°C 17.4°C
23/05/22 13:50 EGYD 231250Z 23007KT 9999 FEW033 BKN110 17/08 Q1000 NOSIG RMK BLU BLU 8.1mph 17°C 8°C 17.4°C
23/05/22 13:20 EGYD 231220Z 25007KT 9999 FEW032 BKN110 17/08 Q1000 NOSIG RMK BLU BLU 8.1mph 17°C 8°C 17.4°C
23/05/22 12:50 EGYD 231150Z 27006KT 9999 FEW031 FEW055 BKN110 17/09 Q1000 NOSIG RMK BLU BLU 6.9mph 17°C 9°C 17.8°C
23/05/22 12:20 EGYD 231120Z 27009KT 9999 FEW031 BKN110 16/09 Q1000 NOSIG RMK BLU BLU 10.4mph 16°C 9°C 16.8°C
23/05/22 11:50 EGYD 231050Z 28007KT 9999 FEW031 SCT055 BKN160 17/08 Q1000 NOSIG RMK BLU BLU 8.1mph 17°C 8°C 17.4°C
23/05/22 11:20 EGYD 231020Z 27008KT 9999 FEW028 SCT055 SCT250 17/10 Q1001 NOSIG RMK BLU BLU 9.2mph 17°C 10°C 18.3°C
23/05/22 10:50 EGYD 230950Z 25008KT 9999 FEW028 BKN160 16/09 Q1001 NOSIG RMK BLU 9.2mph 16°C 9°C 16.8°C
23/05/22 10:20 EGYD 230920Z 27009KT 9999 FEW025 BKN055 16/09 Q1002 NOSIG RMK BLU BLU 10.4mph 16°C 9°C 16.8°C
23/05/22 09:50 EGYD 230850Z 27008KT 9999 FEW023 BKN055 15/09 Q1002 NOSIG RMK BLU BLU 9.2mph 15°C 9°C 15.8°C
23/05/22 09:20 EGYD 230820Z 28008KT 9999 FEW022 BKN050 15/09 Q1002 NOSIG RMK BLU BLU 9.2mph 15°C 9°C 15.8°C
23/05/22 08:50 EGYD 230750Z 27007KT 9999 FEW020 BKN050 14/09 Q1002 NOSIG RMK BLU BLU 8.1mph 14°C 9°C 14.8°C
23/05/22 08:20 EGYD 230720Z 26008KT 9999 FEW016 BKN050 14/10 Q1002 NOSIG RMK BLU BLU 9.2mph 14°C 10°C 15.3°C
23/05/22 07:50 EGYD 230650Z 27008KT 9999 FEW025 BKN042 14/10 Q1002 NOSIG RMK BLU BLU 9.2mph 14°C 10°C 15.3°C
23/05/22 07:20 EGYD 230620Z 26010KT 9999 FEW025 BKN040 BKN080 14/11 Q1003 NOSIG RMK BLU BLU 11.5mph 14°C 11°C 15.8°C
23/05/22 06:50 EGYD 230550Z 25006KT 9999 FEW025 SCT050 BKN080 14/11 Q1003 NOSIG RMK BLU BLU 6.9mph 14°C 11°C 15.8°C
23/05/22 06:20 EGYD 230520Z AUTO 27007KT //// OVC029/// 14/11 Q1003 8.1mph 14°C 11°C 15.8°C
23/05/22 05:50 EGYD 230450Z AUTO 27008KT //// SCT036/// BKN053/// 14/11 Q1003 9.2mph 14°C 11°C 15.8°C
23/05/22 05:20 EGYD 230420Z AUTO 26005KT 9999 BKN053/// BKN067/// 13/11 Q1003 5.8mph 13°C 11°C 14.8°C
23/05/22 04:50 EGYD 230350Z AUTO 27005KT //// OVC054/// 14/10 Q1003 5.8mph 14°C 10°C 15.3°C
23/05/22 04:20 EGYD 230320Z AUTO 26006KT //// OVC054/// 14/10 Q1004 6.9mph 14°C 10°C 15.3°C
23/05/22 03:50 EGYD 230250Z AUTO 26007KT //// OVC058/// 14/10 Q1004 8.1mph 14°C 10°C 15.3°C
23/05/22 03:20 EGYD 230220Z AUTO 25006KT 9999 BKN038/// BKN069/// 14/10 Q1004 6.9mph 14°C 10°C 15.3°C
23/05/22 02:50 EGYD 230150Z AUTO 26007KT //// SCT039/// BKN081/// 14/10 Q1004 8.1mph 14°C 10°C 15.3°C
23/05/22 02:20 EGYD 230120Z AUTO 24006KT //// FEW039/// BKN069/// 15/11 Q1005 6.9mph 15°C 11°C 16.8°C
23/05/22 01:50 EGYD 230050Z AUTO 24005KT //// OVC071/// 15/11 Q1005 5.8mph 15°C 11°C 16.8°C